Aplicació Alertes

Dades de l'estació automàtica Tremp

?
?
Resum diari 22:30 TU
Dades diàries de l'estació meteorològica
Temperatura mitjana 0.2 °C
Temperatura màxima 9.3 °C 15:19 TU
Temperatura mínima -5.9 °C 6:08 TU
Humitat relativa mitjana 68%
Precipitació acumulada 0.0 mm
Ratxa màxima del vent (10 m) 13.3 km/h - 141º 12:22 TU
Irradiació solar global 9.4 MJ/m2

El tram horari està expressat en Temps Universal (TU). Cal sumar una hora en horari d'hivern i dues en horari d'estiu per passar a l'hora oficial.

Tremp

Metadades estació meteorol´gica
Municipi Tremp
Comarca Pallars Jussà
Altitud 473 m
Data alta 22.10.2012
Estat actual Operativa
Dades de període
Període
TU
TM
°C
TX
°C
TN
°C
HRM
%
PPT
mm
VVM (10 m)
km/h
DVM (10 m)
graus
VVX (10 m)
km/h
RS
W/m2
00:00 - 00:30 -2.1 -1.8 -2.5 74 0.0 1.8 282 4.3 0
00:30 - 01:00 -2.3 -2.0 -2.6 75 0.0 1.8 255 6.8 0
01:00 - 01:30 -2.5 -1.8 -3.0 75 0.0 4.3 255 9.0 0
01:30 - 02:00 -3.1 -2.9 -3.2 79 0.0 4.3 313 9.7 0
02:00 - 02:30 -3.3 -3.0 -3.4 79 0.0 5.0 285 9.7 0
02:30 - 03:00 -3.3 -2.8 -3.6 78 0.0 4.7 317 8.6 0
03:00 - 03:30 -3.3 -2.9 -4.1 77 0.0 5.0 225 10.4 0
03:30 - 04:00 -4.2 -4.0 -4.4 82 0.0 2.2 328 5.4 0
04:00 - 04:30 -4.3 -3.8 -4.7 82 0.0 2.9 205 7.9 0
04:30 - 05:00 -4.9 -4.5 -5.4 84 0.0 1.8 349 5.8 0
05:00 - 05:30 -5.0 -4.7 -5.5 84 0.0 1.1 228 5.0 0
05:30 - 06:00 -5.2 -4.8 -5.6 84 0.0 4.0 300 8.3 0
06:00 - 06:30 -5.4 -4.8 -5.9 85 0.0 5.8 328 9.0 0
06:30 - 07:00 -5.1 -4.9 -5.4 83 0.0 2.9 252 5.8 0
07:00 - 07:30 -5.6 -5.3 -5.7 85 0.0 1.4 236 6.5 2
07:30 - 08:00 -5.4 -5.0 -5.6 85 0.0 2.5 204 5.4 64
08:00 - 08:30 -4.5 -4.0 -5.1 83 0.0 1.1 271 2.2 161
08:30 - 09:00 -2.8 -1.8 -3.9 78 0.0 0.7 77 3.2 250
09:00 - 09:30 -1.3 -0.9 -1.8 74 0.0 2.9 154 7.2 319
09:30 - 10:00 -0.9 -0.5 -1.2 76 0.0 3.2 143 6.8 370
10:00 - 10:30 0.2 1.0 -0.4 71 0.0 3.6 177 7.2 405
10:30 - 11:00 1.5 2.1 0.8 65 0.0 4.0 142 7.9 427
11:00 - 11:30 2.6 3.3 2.0 60 0.0 3.2 159 7.6 445
11:30 - 12:00 4.0 4.7 3.3 51 0.0 1.8 9 5.0 490
12:00 - 12:30 5.3 5.6 4.7 46 0.0 6.5 148 13.3 465
12:30 - 13:00 5.9 6.8 5.3 45 0.0 5.0 153 9.7 443
13:00 - 13:30 7.4 8.0 6.6 41 0.0 2.2 202 6.5 437
13:30 - 14:00 8.1 8.4 7.8 39 0.0 2.9 207 6.1 342
14:00 - 14:30 8.2 8.7 7.7 38 0.0 2.5 66 5.0 274
14:30 - 15:00 8.6 8.9 8.0 37 0.0 2.9 177 6.5 207
15:00 - 15:30 8.9 9.3 8.5 36 0.0 1.1 285 5.0 142
15:30 - 16:00 8.2 8.9 6.4 39 0.0 2.5 279 7.6 68
16:00 - 16:30 5.4 6.6 4.3 47 0.0 4.3 322 11.2 6
16:30 - 17:00 3.5 4.2 2.6 55 0.0 3.6 340 7.6 0
17:00 - 17:30 2.7 2.9 2.4 60 0.0 4.3 345 8.3 0
17:30 - 18:00 2.5 3.1 2.0 61 0.0 5.8 323 10.4 0
18:00 - 18:30 2.0 2.6 1.4 62 0.0 3.6 305 9.0 0
18:30 - 19:00 1.0 1.7 0.4 65 0.0 4.3 294 8.6 0
19:00 - 19:30 0.3 1.0 0.1 69 0.0 4.3 332 6.1 0
19:30 - 20:00 0.4 1.3 0.0 69 0.0 2.5 294 7.2 0
20:00 - 20:30 -0.3 0.2 -0.7 73 0.0 4.0 306 6.5 0
20:30 - 21:00 -0.2 0.0 -0.7 74 0.0 2.9 298 6.5 0
21:00 - 21:30 -0.7 -0.5 -0.9 78 0.0 1.8 280 5.4 0
21:30 - 22:00 -0.5 0.0 -0.9 77 0.0 4.0 300 7.9 0
22:00 - 22:30 -0.4 -0.2 -0.7 76 0.0 2.5 309 5.0 0
22:30 - 23:00 -1.1 -0.7 -1.2 79 0.0 3.6 143 7.6 0

Les dades en taronja només han passat un control de qualitat automàtic. Resta pendent la seva validació definitiva.